Terminal Aerodrome Forecast
Issued by NWS Jacksonville, FL

Home | Current Version | Previous Version | Text Only | Print | Product List | Glossary On
Versions: 1 2 3 4 5 6 7 8 9 10 11 12
000
FTUS42 KJAX 201700
TAFGNV
TAF
KGNV 201727Z 2018/2118 VRB05KT P6SM BKN090
     FM202300 03004KT P6SM BKN035 OVC080
     FM210400 03002KT P6SM BKN008 OVC030
     FM210700 02002KT 5SM BR VCSH OVC008
     FM211000 02002KT 3SM BR VCSH OVC005=

USA.gov is the U.S. government's official web portal to all federal, state and local government web resources and services.